sensor_id;sensor_type;location;lat;lon;timestamp;temperature;humidity
67157;SHT31;54086;50.126;8.710;2023-03-01T00:01:16;0.62;74.92
67157;SHT31;54086;50.126;8.710;2023-03-01T00:03:42;0.66;74.71
67157;SHT31;54086;50.126;8.710;2023-03-01T00:06:08;0.80;74.55
67157;SHT31;54086;50.126;8.710;2023-03-01T00:08:34;0.68;74.60
67157;SHT31;54086;50.126;8.710;2023-03-01T00:11:24;0.56;74.78
67157;SHT31;54086;50.126;8.710;2023-03-01T00:13:55;0.60;74.91
67157;SHT31;54086;50.126;8.710;2023-03-01T00:16:27;0.77;74.77
67157;SHT31;54086;50.126;8.710;2023-03-01T00:18:55;0.82;74.55
67157;SHT31;54086;50.126;8.710;2023-03-01T00:21:21;0.72;74.86
67157;SHT31;54086;50.126;8.710;2023-03-01T00:23:47;0.83;74.55
67157;SHT31;54086;50.126;8.710;2023-03-01T00:26:15;0.84;74.39
67157;SHT31;54086;50.126;8.710;2023-03-01T00:28:41;0.84;74.42
67157;SHT31;54086;50.126;8.710;2023-03-01T00:31:13;0.73;74.39
67157;SHT31;54086;50.126;8.710;2023-03-01T00:33:38;0.84;74.52
67157;SHT31;54086;50.126;8.710;2023-03-01T00:36:04;0.83;74.48
67157;SHT31;54086;50.126;8.710;2023-03-01T00:38:30;0.83;74.42
67157;SHT31;54086;50.126;8.710;2023-03-01T00:41:06;0.73;74.57
67157;SHT31;54086;50.126;8.710;2023-03-01T00:43:32;0.80;74.70
67157;SHT31;54086;50.126;8.710;2023-03-01T00:46:05;0.83;74.52
67157;SHT31;54086;50.126;8.710;2023-03-01T00:48:32;0.77;74.54
67157;SHT31;54086;50.126;8.710;2023-03-01T00:51:11;0.79;74.65
67157;SHT31;54086;50.126;8.710;2023-03-01T00:53:37;0.80;74.58
67157;SHT31;54086;50.126;8.710;2023-03-01T00:56:04;0.69;75.05
67157;SHT31;54086;50.126;8.710;2023-03-01T00:58:30;0.68;75.11
67157;SHT31;54086;50.126;8.710;2023-03-01T01:00:55;0.55;75.23
67157;SHT31;54086;50.126;8.710;2023-03-01T01:03:21;0.66;75.32
67157;SHT31;54086;50.126;8.710;2023-03-01T01:05:46;0.68;75.04
67157;SHT31;54086;50.126;8.710;2023-03-01T01:08:12;0.63;74.90
67157;SHT31;54086;50.126;8.710;2023-03-01T01:10:37;0.56;75.11
67157;SHT31;54086;50.126;8.710;2023-03-01T01:13:03;0.41;75.69
67157;SHT31;54086;50.126;8.710;2023-03-01T01:15:28;0.46;75.49
67157;SHT31;54086;50.126;8.710;2023-03-01T01:17:54;0.37;75.89
67157;SHT31;54086;50.126;8.710;2023-03-01T01:20:20;0.42;75.86
67157;SHT31;54086;50.126;8.710;2023-03-01T01:22:45;0.46;75.65
67157;SHT31;54086;50.126;8.710;2023-03-01T01:25:10;0.51;75.84
67157;SHT31;54086;50.126;8.710;2023-03-01T01:27:36;0.55;75.60
67157;SHT31;54086;50.126;8.710;2023-03-01T01:30:02;0.55;75.60
67157;SHT31;54086;50.126;8.710;2023-03-01T01:32:28;0.52;75.77
67157;SHT31;54086;50.126;8.710;2023-03-01T01:34:53;0.46;75.66
67157;SHT31;54086;50.126;8.710;2023-03-01T01:37:19;0.51;75.72
67157;SHT31;54086;50.126;8.710;2023-03-01T01:39:44;0.45;75.79
67157;SHT31;54086;50.126;8.710;2023-03-01T01:42:16;0.55;75.86
67157;SHT31;54086;50.126;8.710;2023-03-01T01:44:44;0.58;75.47
67157;SHT31;54086;50.126;8.710;2023-03-01T01:47:15;0.55;75.70
67157;SHT31;54086;50.126;8.710;2023-03-01T01:52:24;0.55;75.58
67157;SHT31;54086;50.126;8.710;2023-03-01T01:54:57;0.55;75.71
67157;SHT31;54086;50.126;8.710;2023-03-01T01:57:32;0.53;75.53
67157;SHT31;54086;50.126;8.710;2023-03-01T02:00:03;0.58;75.45
67157;SHT31;54086;50.126;8.710;2023-03-01T02:02:29;0.59;75.42
67157;SHT31;54086;50.126;8.710;2023-03-01T02:05:09;0.62;75.31
67157;SHT31;54086;50.126;8.710;2023-03-01T02:07:38;0.59;75.24
67157;SHT31;54086;50.126;8.710;2023-03-01T02:10:05;0.69;75.17
67157;SHT31;54086;50.126;8.710;2023-03-01T02:12:31;0.70;74.67
67157;SHT31;54086;50.126;8.710;2023-03-01T02:14:56;0.76;74.74
67157;SHT31;54086;50.126;8.710;2023-03-01T02:17:22;0.72;74.67
67157;SHT31;54086;50.126;8.710;2023-03-01T02:22:27;0.73;74.94
67157;SHT31;54086;50.126;8.710;2023-03-01T02:30:39;0.73;74.90
67157;SHT31;54086;50.126;8.710;2023-03-01T02:33:26;0.70;74.86
67157;SHT31;54086;50.126;8.710;2023-03-01T02:35:53;0.70;74.65
67157;SHT31;54086;50.126;8.710;2023-03-01T02:38:19;0.83;74.62
67157;SHT31;54086;50.126;8.710;2023-03-01T02:40:45;0.83;74.41
67157;SHT31;54086;50.126;8.710;2023-03-01T02:43:11;0.83;74.27
67157;SHT31;54086;50.126;8.710;2023-03-01T02:45:37;0.75;74.47
67157;SHT31;54086;50.126;8.710;2023-03-01T02:48:02;0.73;74.69
67157;SHT31;54086;50.126;8.710;2023-03-01T02:53:02;0.69;74.90
67157;SHT31;54086;50.126;8.710;2023-03-01T02:55:29;0.63;75.20
67157;SHT31;54086;50.126;8.710;2023-03-01T02:57:56;0.69;75.24
67157;SHT31;54086;50.126;8.710;2023-03-01T03:00:25;0.69;75.19
67157;SHT31;54086;50.126;8.710;2023-03-01T03:02:53;0.66;75.14
67157;SHT31;54086;50.126;8.710;2023-03-01T03:05:27;0.62;75.20
67157;SHT31;54086;50.126;8.710;2023-03-01T03:07:54;0.63;75.57
67157;SHT31;54086;50.126;8.710;2023-03-01T03:10:27;0.53;75.46
67157;SHT31;54086;50.126;8.710;2023-03-01T03:12:58;0.35;75.99
67157;SHT31;54086;50.126;8.710;2023-03-01T03:15:25;0.32;76.30
67157;SHT31;54086;50.126;8.710;2023-03-01T03:17:52;0.38;76.12
67157;SHT31;54086;50.126;8.710;2023-03-01T03:20:20;0.44;76.16
67157;SHT31;54086;50.126;8.710;2023-03-01T03:22:49;0.44;76.19
67157;SHT31;54086;50.126;8.710;2023-03-01T03:25:16;0.44;76.24
67157;SHT31;54086;50.126;8.710;2023-03-01T03:27:43;0.42;75.95
67157;SHT31;54086;50.126;8.710;2023-03-01T03:30:12;0.37;76.35
67157;SHT31;54086;50.126;8.710;2023-03-01T03:32:43;0.33;76.43
67157;SHT31;54086;50.126;8.710;2023-03-01T03:35:18;0.42;76.49
67157;SHT31;54086;50.126;8.710;2023-03-01T03:37:44;0.42;76.47
67157;SHT31;54086;50.126;8.710;2023-03-01T03:40:33;0.24;76.60
67157;SHT31;54086;50.126;8.710;2023-03-01T03:42:59;0.29;76.65
67157;SHT31;54086;50.126;8.710;2023-03-01T03:45:24;0.28;76.74
67157;SHT31;54086;50.126;8.710;2023-03-01T03:47:50;0.28;76.59
67157;SHT31;54086;50.126;8.710;2023-03-01T03:50:16;0.29;76.45
67157;SHT31;54086;50.126;8.710;2023-03-01T03:52:42;0.28;76.59
67157;SHT31;54086;50.126;8.710;2023-03-01T03:55:10;0.26;76.56
67157;SHT31;54086;50.126;8.710;2023-03-01T03:57:41;0.35;76.35
67157;SHT31;54086;50.126;8.710;2023-03-01T04:00:10;0.32;76.34
67157;SHT31;54086;50.126;8.710;2023-03-01T04:02:42;0.37;76.37
67157;SHT31;54086;50.126;8.710;2023-03-01T04:05:09;0.42;76.50
67157;SHT31;54086;50.126;8.710;2023-03-01T04:07:36;0.39;76.37
67157;SHT31;54086;50.126;8.710;2023-03-01T04:10:06;0.29;76.48
67157;SHT31;54086;50.126;8.710;2023-03-01T04:12:33;0.41;76.70
67157;SHT31;54086;50.126;8.710;2023-03-01T04:14:59;0.37;76.65
67157;SHT31;54086;50.126;8.710;2023-03-01T04:17:25;0.32;76.41
67157;SHT31;54086;50.126;8.710;2023-03-01T04:19:50;0.25;76.56
67157;SHT31;54086;50.126;8.710;2023-03-01T04:22:16;0.31;76.61
67157;SHT31;54086;50.126;8.710;2023-03-01T04:24:44;0.31;76.63
67157;SHT31;54086;50.126;8.710;2023-03-01T04:27:10;0.26;77.01
67157;SHT31;54086;50.126;8.710;2023-03-01T04:29:35;0.04;76.98
67157;SHT31;54086;50.126;8.710;2023-03-01T04:32:01;0.05;77.08
67157;SHT31;54086;50.126;8.710;2023-03-01T04:34:28;-0.02;77.39
67157;SHT31;54086;50.126;8.710;2023-03-01T04:36:53;-0.10;78.05
67157;SHT31;54086;50.126;8.710;2023-03-01T04:39:18;-0.13;77.92
67157;SHT31;54086;50.126;8.710;2023-03-01T04:41:44;-0.29;78.31
67157;SHT31;54086;50.126;8.710;2023-03-01T04:44:09;-0.19;78.10
67157;SHT31;54086;50.126;8.710;2023-03-01T04:46:35;-0.30;78.39
67157;SHT31;54086;50.126;8.710;2023-03-01T04:49:02;-0.30;78.50
67157;SHT31;54086;50.126;8.710;2023-03-01T04:51:28;-0.23;78.21
67157;SHT31;54086;50.126;8.710;2023-03-01T04:53:53;-0.21;78.38
67157;SHT31;54086;50.126;8.710;2023-03-01T04:56:18;-0.07;78.33
67157;SHT31;54086;50.126;8.710;2023-03-01T04:58:44;-0.13;78.39
67157;SHT31;54086;50.126;8.710;2023-03-01T05:01:16;-0.13;78.40
67157;SHT31;54086;50.126;8.710;2023-03-01T05:03:47;-0.17;78.31
67157;SHT31;54086;50.126;8.710;2023-03-01T05:06:13;-0.11;78.21
67157;SHT31;54086;50.126;8.710;2023-03-01T05:08:39;-0.16;78.43
67157;SHT31;54086;50.126;8.710;2023-03-01T05:11:05;-0.21;78.51
67157;SHT31;54086;50.126;8.710;2023-03-01T05:13:31;-0.16;78.27
67157;SHT31;54086;50.126;8.710;2023-03-01T05:15:59;-0.19;78.46
67157;SHT31;54086;50.126;8.710;2023-03-01T05:18:25;-0.14;78.44
67157;SHT31;54086;50.126;8.710;2023-03-01T05:20:52;-0.24;78.50
67157;SHT31;54086;50.126;8.710;2023-03-01T05:23:18;-0.24;78.62
67157;SHT31;54086;50.126;8.710;2023-03-01T05:25:44;-0.24;78.54
67157;SHT31;54086;50.126;8.710;2023-03-01T05:28:11;-0.21;78.35
67157;SHT31;54086;50.126;8.710;2023-03-01T05:30:36;-0.30;78.80
67157;SHT31;54086;50.126;8.710;2023-03-01T05:33:04;-0.27;78.74
67157;SHT31;54086;50.126;8.710;2023-03-01T05:35:32;-0.36;78.75
67157;SHT31;54086;50.126;8.710;2023-03-01T05:37:58;-0.38;78.86
67157;SHT31;54086;50.126;8.710;2023-03-01T05:40:24;-0.37;78.82
67157;SHT31;54086;50.126;8.710;2023-03-01T05:42:52;-0.31;78.88
67157;SHT31;54086;50.126;8.710;2023-03-01T05:45:19;-0.31;78.74
67157;SHT31;54086;50.126;8.710;2023-03-01T05:47:47;-0.36;78.62
67157;SHT31;54086;50.126;8.710;2023-03-01T05:50:15;-0.33;78.59
67157;SHT31;54086;50.126;8.710;2023-03-01T05:52:45;-0.29;78.71
67157;SHT31;54086;50.126;8.710;2023-03-01T05:55:11;-0.37;78.66
67157;SHT31;54086;50.126;8.710;2023-03-01T05:57:36;-0.30;78.65
67157;SHT31;54086;50.126;8.710;2023-03-01T06:00:02;-0.33;78.60
67157;SHT31;54086;50.126;8.710;2023-03-01T06:02:28;-0.36;78.95
67157;SHT31;54086;50.126;8.710;2023-03-01T06:04:54;-0.40;79.15
67157;SHT31;54086;50.126;8.710;2023-03-01T06:07:20;-0.45;78.83
67157;SHT31;54086;50.126;8.710;2023-03-01T06:09:45;-0.36;78.79
67157;SHT31;54086;50.126;8.710;2023-03-01T06:12:10;-0.26;78.58
67157;SHT31;54086;50.126;8.710;2023-03-01T06:14:36;-0.26;78.68
67157;SHT31;54086;50.126;8.710;2023-03-01T06:17:01;-0.20;78.52
67157;SHT31;54086;50.126;8.710;2023-03-01T06:19:26;-0.19;78.39
67157;SHT31;54086;50.126;8.710;2023-03-01T06:21:52;-0.19;78.20
67157;SHT31;54086;50.126;8.710;2023-03-01T06:24:17;-0.20;78.47
67157;SHT31;54086;50.126;8.710;2023-03-01T06:26:42;-0.30;78.92
67157;SHT31;54086;50.126;8.710;2023-03-01T06:29:08;-0.13;78.53
67157;SHT31;54086;50.126;8.710;2023-03-01T06:31:34;0.01;78.21
67157;SHT31;54086;50.126;8.710;2023-03-01T06:33:59;-0.14;78.22
67157;SHT31;54086;50.126;8.710;2023-03-01T06:36:24;-0.14;78.29
67157;SHT31;54086;50.126;8.710;2023-03-01T06:38:50;-0.13;78.42
67157;SHT31;54086;50.126;8.710;2023-03-01T06:41:15;0.02;77.98
67157;SHT31;54086;50.126;8.710;2023-03-01T06:43:40;-0.09;78.08
67157;SHT31;54086;50.126;8.710;2023-03-01T06:46:06;0.08;78.01
67157;SHT31;54086;50.126;8.710;2023-03-01T06:48:33;0.21;77.68
67157;SHT31;54086;50.126;8.710;2023-03-01T06:50:59;0.18;77.20
67157;SHT31;54086;50.126;8.710;2023-03-01T06:53:26;0.38;76.71
67157;SHT31;54086;50.126;8.710;2023-03-01T06:55:58;0.41;76.56
67157;SHT31;54086;50.126;8.710;2023-03-01T06:58:25;0.45;76.40
67157;SHT31;54086;50.126;8.710;2023-03-01T07:00:51;0.45;76.43
67157;SHT31;54086;50.126;8.710;2023-03-01T07:03:16;0.51;76.43
67157;SHT31;54086;50.126;8.710;2023-03-01T07:05:41;0.56;76.20
67157;SHT31;54086;50.126;8.710;2023-03-01T07:08:07;0.46;76.29
67157;SHT31;54086;50.126;8.710;2023-03-01T07:10:32;0.55;76.33
67157;SHT31;54086;50.126;8.710;2023-03-01T07:12:58;0.62;76.00
67157;SHT31;54086;50.126;8.710;2023-03-01T07:15:24;0.70;75.92
67157;SHT31;54086;50.126;8.710;2023-03-01T07:17:50;0.62;76.23
67157;SHT31;54086;50.126;8.710;2023-03-01T07:20:17;0.52;76.15
67157;SHT31;54086;50.126;8.710;2023-03-01T07:22:42;0.65;76.09
67157;SHT31;54086;50.126;8.710;2023-03-01T07:25:09;0.62;76.10
67157;SHT31;54086;50.126;8.710;2023-03-01T07:27:35;0.70;75.88
67157;SHT31;54086;50.126;8.710;2023-03-01T07:30:02;0.66;76.13
67157;SHT31;54086;50.126;8.710;2023-03-01T07:32:27;0.82;75.96
67157;SHT31;54086;50.126;8.710;2023-03-01T07:34:53;0.69;75.79
67157;SHT31;54086;50.126;8.710;2023-03-01T07:37:18;0.69;75.82
67157;SHT31;54086;50.126;8.710;2023-03-01T07:39:43;0.77;76.07
67157;SHT31;54086;50.126;8.710;2023-03-01T07:42:09;0.94;75.18
67157;SHT31;54086;50.126;8.710;2023-03-01T07:44:34;1.05;74.87
67157;SHT31;54086;50.126;8.710;2023-03-01T07:47:00;1.35;74.04
67157;SHT31;54086;50.126;8.710;2023-03-01T07:49:25;1.86;72.87
67157;SHT31;54086;50.126;8.710;2023-03-01T07:51:53;2.11;71.78
67157;SHT31;54086;50.126;8.710;2023-03-01T07:54:19;2.37;71.01
67157;SHT31;54086;50.126;8.710;2023-03-01T07:56:44;2.62;70.42
67157;SHT31;54086;50.126;8.710;2023-03-01T07:59:09;2.72;70.29
67157;SHT31;54086;50.126;8.710;2023-03-01T08:01:35;2.84;69.46
67157;SHT31;54086;50.126;8.710;2023-03-01T08:04:00;3.13;68.72
67157;SHT31;54086;50.126;8.710;2023-03-01T08:06:26;3.75;67.07
67157;SHT31;54086;50.126;8.710;2023-03-01T08:08:52;3.78;66.70
67157;SHT31;54086;50.126;8.710;2023-03-01T08:11:20;4.16;66.05
67157;SHT31;54086;50.126;8.710;2023-03-01T08:13:47;4.39;65.25
67157;SHT31;54086;50.126;8.710;2023-03-01T08:16:14;4.40;64.87
67157;SHT31;54086;50.126;8.710;2023-03-01T08:18:40;4.97;63.35
67157;SHT31;54086;50.126;8.710;2023-03-01T08:21:08;4.73;63.85
67157;SHT31;54086;50.126;8.710;2023-03-01T08:23:34;5.07;63.58
67157;SHT31;54086;50.126;8.710;2023-03-01T08:26:07;5.07;62.47
67157;SHT31;54086;50.126;8.710;2023-03-01T08:28:33;5.21;62.20
67157;SHT31;54086;50.126;8.710;2023-03-01T08:30:58;5.45;62.22
67157;SHT31;54086;50.126;8.710;2023-03-01T08:33:24;5.53;62.01
67157;SHT31;54086;50.126;8.710;2023-03-01T08:35:49;6.03;60.84
67157;SHT31;54086;50.126;8.710;2023-03-01T08:38:14;5.79;61.38
67157;SHT31;54086;50.126;8.710;2023-03-01T08:40:40;5.42;61.29
67157;SHT31;54086;50.126;8.710;2023-03-01T08:43:05;5.49;62.26
67157;SHT31;54086;50.126;8.710;2023-03-01T08:45:31;5.42;61.83
67157;SHT31;54086;50.126;8.710;2023-03-01T08:47:56;5.81;61.11
67157;SHT31;54086;50.126;8.710;2023-03-01T08:50:21;5.60;61.26
67157;SHT31;54086;50.126;8.710;2023-03-01T08:52:49;5.58;61.45
67157;SHT31;54086;50.126;8.710;2023-03-01T08:55:15;6.06;60.22
67157;SHT31;54086;50.126;8.710;2023-03-01T08:57:42;6.83;59.04
67157;SHT31;54086;50.126;8.710;2023-03-01T09:00:08;6.78;58.07
67157;SHT31;54086;50.126;8.710;2023-03-01T09:02:34;6.58;58.97
67157;SHT31;54086;50.126;8.710;2023-03-01T09:04:59;7.41;57.40
67157;SHT31;54086;50.126;8.710;2023-03-01T09:07:26;6.58;57.30
67157;SHT31;54086;50.126;8.710;2023-03-01T09:09:53;7.16;57.13
67157;SHT31;54086;50.126;8.710;2023-03-01T09:12:19;7.35;55.18
67157;SHT31;54086;50.126;8.710;2023-03-01T09:14:44;7.78;55.68
67157;SHT31;54086;50.126;8.710;2023-03-01T09:17:10;7.78;55.23
67157;SHT31;54086;50.126;8.710;2023-03-01T09:19:35;6.97;56.98
67157;SHT31;54086;50.126;8.710;2023-03-01T09:22:03;7.44;56.66
67157;SHT31;54086;50.126;8.710;2023-03-01T09:24:29;7.28;57.23
67157;SHT31;54086;50.126;8.710;2023-03-01T09:26:55;7.48;56.32
67157;SHT31;54086;50.126;8.710;2023-03-01T09:29:21;7.58;56.14
67157;SHT31;54086;50.126;8.710;2023-03-01T09:31:46;7.41;56.18
67157;SHT31;54086;50.126;8.710;2023-03-01T09:34:12;7.91;55.05
67157;SHT31;54086;50.126;8.710;2023-03-01T09:36:41;8.49;54.11
67157;SHT31;54086;50.126;8.710;2023-03-01T09:39:07;8.28;54.49
67157;SHT31;54086;50.126;8.710;2023-03-01T09:44:03;8.53;55.12
67157;SHT31;54086;50.126;8.710;2023-03-01T09:46:32;8.14;53.58
67157;SHT31;54086;50.126;8.710;2023-03-01T09:49:06;9.01;52.46
67157;SHT31;54086;50.126;8.710;2023-03-01T09:51:35;8.77;53.19
67157;SHT31;54086;50.126;8.710;2023-03-01T09:54:02;9.29;52.02
67157;SHT31;54086;50.126;8.710;2023-03-01T09:56:36;9.43;51.46
67157;SHT31;54086;50.126;8.710;2023-03-01T10:01:59;8.16;53.08
67157;SHT31;54086;50.126;8.710;2023-03-01T10:05:04;8.30;52.82
67157;SHT31;54086;50.126;8.710;2023-03-01T10:10:26;9.19;51.92
67157;SHT31;54086;50.126;8.710;2023-03-01T10:12:52;9.83;50.83
67157;SHT31;54086;50.126;8.710;2023-03-01T10:15:25;8.99;51.39
67157;SHT31;54086;50.126;8.710;2023-03-01T10:18:04;9.40;52.13
67157;SHT31;54086;50.126;8.710;2023-03-01T10:20:56;9.81;51.20
67157;SHT31;54086;50.126;8.710;2023-03-01T10:23:26;10.02;50.35
67157;SHT31;54086;50.126;8.710;2023-03-01T10:28:57;10.05;50.27
67157;SHT31;54086;50.126;8.710;2023-03-01T10:31:34;9.74;50.62
67157;SHT31;54086;50.126;8.710;2023-03-01T10:34:02;9.77;50.42
67157;SHT31;54086;50.126;8.710;2023-03-01T10:36:32;9.40;51.28
67157;SHT31;54086;50.126;8.710;2023-03-01T10:38:58;9.38;51.09
67157;SHT31;54086;50.126;8.710;2023-03-01T10:41:25;10.27;49.82
67157;SHT31;54086;50.126;8.710;2023-03-01T10:43:58;11.04;48.26
67157;SHT31;54086;50.126;8.710;2023-03-01T10:46:29;10.53;48.07
67157;SHT31;54086;50.126;8.710;2023-03-01T10:49:31;10.93;47.81
67157;SHT31;54086;50.126;8.710;2023-03-01T10:52:11;10.15;50.37
67157;SHT31;54086;50.126;8.710;2023-03-01T10:54:52;10.08;49.11
67157;SHT31;54086;50.126;8.710;2023-03-01T10:57:30;10.41;49.99
67157;SHT31;54086;50.126;8.710;2023-03-01T11:00:23;10.76;48.11
67157;SHT31;54086;50.126;8.710;2023-03-01T11:03:11;10.56;49.04
67157;SHT31;54086;50.126;8.710;2023-03-01T11:05:51;10.76;48.65
67157;SHT31;54086;50.126;8.710;2023-03-01T11:08:29;11.07;48.13
67157;SHT31;54086;50.126;8.710;2023-03-01T11:13:34;10.59;47.68
67157;SHT31;54086;50.126;8.710;2023-03-01T11:16:02;9.76;49.28
67157;SHT31;54086;50.126;8.710;2023-03-01T11:18:30;10.22;50.19
67157;SHT31;54086;50.126;8.710;2023-03-01T11:20:56;10.11;48.05
67157;SHT31;54086;50.126;8.710;2023-03-01T11:23:22;9.35;49.93
67157;SHT31;54086;50.126;8.710;2023-03-01T11:25:54;10.34;47.52
67157;SHT31;54086;50.126;8.710;2023-03-01T11:28:21;11.31;45.75
67157;SHT31;54086;50.126;8.710;2023-03-01T11:30:51;11.01;46.79
67157;SHT31;54086;50.126;8.710;2023-03-01T11:36:05;10.96;45.31
67157;SHT31;54086;50.126;8.710;2023-03-01T11:38:34;10.77;45.10
67157;SHT31;54086;50.126;8.710;2023-03-01T11:41:08;10.32;46.41
67157;SHT31;54086;50.126;8.710;2023-03-01T11:43:52;11.20;44.80
67157;SHT31;54086;50.126;8.710;2023-03-01T11:54:39;10.07;46.01
67157;SHT31;54086;50.126;8.710;2023-03-01T12:06:08;10.73;45.19
67157;SHT31;54086;50.126;8.710;2023-03-01T12:22:14;10.79;44.06
67157;SHT31;54086;50.126;8.710;2023-03-01T12:30:14;11.48;42.48
67157;SHT31;54086;50.126;8.710;2023-03-01T12:36:07;11.47;42.80
67157;SHT31;54086;50.126;8.710;2023-03-01T12:38:54;11.62;42.77
67157;SHT31;54086;50.126;8.710;2023-03-01T12:49:40;11.77;42.45
67157;SHT31;54086;50.126;8.710;2023-03-01T12:54:56;11.69;42.78
67157;SHT31;54086;50.126;8.710;2023-03-01T12:57:33;12.37;40.97
67157;SHT31;54086;50.126;8.710;2023-03-01T13:03:00;12.67;40.24
67157;SHT31;54086;50.126;8.710;2023-03-01T13:05:36;11.18;42.24
67157;SHT31;54086;50.126;8.710;2023-03-01T13:08:27;10.11;43.87
67157;SHT31;54086;50.126;8.710;2023-03-01T13:10:59;10.48;43.73
67157;SHT31;54086;50.126;8.710;2023-03-01T13:13:28;10.66;43.34
67157;SHT31;54086;50.126;8.710;2023-03-01T13:15:55;10.80;43.51
67157;SHT31;54086;50.126;8.710;2023-03-01T13:20:50;10.97;45.04
67157;SHT31;54086;50.126;8.710;2023-03-01T13:26:10;11.32;45.21
67157;SHT31;54086;50.126;8.710;2023-03-01T13:33:49;10.77;46.24
67157;SHT31;54086;50.126;8.710;2023-03-01T13:38:57;10.39;47.08
67157;SHT31;54086;50.126;8.710;2023-03-01T13:44:25;9.60;48.91
67157;SHT31;54086;50.126;8.710;2023-03-01T13:52:40;9.36;48.98
67157;SHT31;54086;50.126;8.710;2023-03-01T13:57:39;9.46;48.93
67157;SHT31;54086;50.126;8.710;2023-03-01T14:00:05;9.19;49.53
67157;SHT31;54086;50.126;8.710;2023-03-01T14:02:31;9.30;49.50
67157;SHT31;54086;50.126;8.710;2023-03-01T14:04:58;9.28;49.76
67157;SHT31;54086;50.126;8.710;2023-03-01T14:07:25;9.30;49.81
67157;SHT31;54086;50.126;8.710;2023-03-01T14:09:58;9.39;49.63
67157;SHT31;54086;50.126;8.710;2023-03-01T14:12:50;9.22;49.52
67157;SHT31;54086;50.126;8.710;2023-03-01T14:15:31;8.91;49.74
67157;SHT31;54086;50.126;8.710;2023-03-01T14:18:11;9.04;50.19
67157;SHT31;54086;50.126;8.710;2023-03-01T14:20:42;9.12;50.32
67157;SHT31;54086;50.126;8.710;2023-03-01T14:23:28;8.98;50.33
67157;SHT31;54086;50.126;8.710;2023-03-01T14:25:56;9.05;50.35
67157;SHT31;54086;50.126;8.710;2023-03-01T14:28:25;9.16;50.18
67157;SHT31;54086;50.126;8.710;2023-03-01T14:30:56;9.23;49.89
67157;SHT31;54086;50.126;8.710;2023-03-01T14:33:35;9.08;50.22
67157;SHT31;54086;50.126;8.710;2023-03-01T14:36:07;8.99;50.36
67157;SHT31;54086;50.126;8.710;2023-03-01T14:38:38;8.89;50.46
67157;SHT31;54086;50.126;8.710;2023-03-01T14:41:14;8.91;50.58
67157;SHT31;54086;50.126;8.710;2023-03-01T14:43:50;8.93;50.77
67157;SHT31;54086;50.126;8.710;2023-03-01T14:48:57;8.98;50.50
67157;SHT31;54086;50.126;8.710;2023-03-01T14:51:23;8.97;50.43
67157;SHT31;54086;50.126;8.710;2023-03-01T14:53:49;8.85;50.81
67157;SHT31;54086;50.126;8.710;2023-03-01T14:56:16;8.89;50.91
67157;SHT31;54086;50.126;8.710;2023-03-01T14:58:42;8.87;50.55
67157;SHT31;54086;50.126;8.710;2023-03-01T15:01:13;8.87;50.66
67157;SHT31;54086;50.126;8.710;2023-03-01T15:03:47;8.78;50.83
67157;SHT31;54086;50.126;8.710;2023-03-01T15:06:22;8.91;50.93
67157;SHT31;54086;50.126;8.710;2023-03-01T15:08:52;8.88;51.13
67157;SHT31;54086;50.126;8.710;2023-03-01T15:11:30;8.64;50.52
67157;SHT31;54086;50.126;8.710;2023-03-01T15:13:57;8.57;50.63
67157;SHT31;54086;50.126;8.710;2023-03-01T15:18:52;8.47;50.77
67157;SHT31;54086;50.126;8.710;2023-03-01T15:21:24;8.51;50.97
67157;SHT31;54086;50.126;8.710;2023-03-01T15:23:53;8.53;50.88
67157;SHT31;54086;50.126;8.710;2023-03-01T15:26:32;8.56;50.75
67157;SHT31;54086;50.126;8.710;2023-03-01T15:28:59;8.47;50.74
67157;SHT31;54086;50.126;8.710;2023-03-01T15:31:32;8.54;51.05
67157;SHT31;54086;50.126;8.710;2023-03-01T15:34:21;8.51;50.74
67157;SHT31;54086;50.126;8.710;2023-03-01T15:36:48;8.37;50.46
67157;SHT31;54086;50.126;8.710;2023-03-01T15:41:58;8.41;50.36
67157;SHT31;54086;50.126;8.710;2023-03-01T15:44:30;8.44;50.32
67157;SHT31;54086;50.126;8.710;2023-03-01T15:46:56;8.28;50.57
67157;SHT31;54086;50.126;8.710;2023-03-01T15:49:40;8.28;51.01
67157;SHT31;54086;50.126;8.710;2023-03-01T15:52:27;8.39;51.36
67157;SHT31;54086;50.126;8.710;2023-03-01T15:54:59;8.29;50.78
67157;SHT31;54086;50.126;8.710;2023-03-01T15:57:24;8.30;50.97
67157;SHT31;54086;50.126;8.710;2023-03-01T15:59:50;8.29;51.01
67157;SHT31;54086;50.126;8.710;2023-03-01T16:02:15;8.20;50.92
67157;SHT31;54086;50.126;8.710;2023-03-01T16:04:41;8.12;51.08
67157;SHT31;54086;50.126;8.710;2023-03-01T16:07:08;8.22;51.39
67157;SHT31;54086;50.126;8.710;2023-03-01T16:09:35;7.91;51.68
67157;SHT31;54086;50.126;8.710;2023-03-01T16:12:00;7.98;51.90
67157;SHT31;54086;50.126;8.710;2023-03-01T16:14:26;8.00;52.13
67157;SHT31;54086;50.126;8.710;2023-03-01T16:16:52;7.86;52.35
67157;SHT31;54086;50.126;8.710;2023-03-01T16:19:17;7.92;52.36
67157;SHT31;54086;50.126;8.710;2023-03-01T16:21:43;7.78;52.24
67157;SHT31;54086;50.126;8.710;2023-03-01T16:24:12;7.67;52.44
67157;SHT31;54086;50.126;8.710;2023-03-01T16:26:38;7.61;52.74
67157;SHT31;54086;50.126;8.710;2023-03-01T16:29:04;7.55;52.92
67157;SHT31;54086;50.126;8.710;2023-03-01T16:31:30;7.46;52.79
67157;SHT31;54086;50.126;8.710;2023-03-01T16:33:57;7.40;52.81
67157;SHT31;54086;50.126;8.710;2023-03-01T16:36:25;7.34;52.66
67157;SHT31;54086;50.126;8.710;2023-03-01T16:38:52;7.27;53.01
67157;SHT31;54086;50.126;8.710;2023-03-01T16:41:20;7.30;52.86
67157;SHT31;54086;50.126;8.710;2023-03-01T16:43:46;7.19;53.15
67157;SHT31;54086;50.126;8.710;2023-03-01T16:46:14;7.09;53.15
67157;SHT31;54086;50.126;8.710;2023-03-01T16:48:40;7.14;53.28
67157;SHT31;54086;50.126;8.710;2023-03-01T16:51:06;7.09;53.37
67157;SHT31;54086;50.126;8.710;2023-03-01T16:53:32;7.01;53.55
67157;SHT31;54086;50.126;8.710;2023-03-01T16:55:59;6.96;53.57
67157;SHT31;54086;50.126;8.710;2023-03-01T16:58:25;6.89;53.97
67157;SHT31;54086;50.126;8.710;2023-03-01T17:00:52;6.88;54.11
67157;SHT31;54086;50.126;8.710;2023-03-01T17:03:22;6.82;54.47
67157;SHT31;54086;50.126;8.710;2023-03-01T17:05:48;6.80;54.62
67157;SHT31;54086;50.126;8.710;2023-03-01T17:08:14;6.78;54.67
67157;SHT31;54086;50.126;8.710;2023-03-01T17:10:40;6.76;54.46
67157;SHT31;54086;50.126;8.710;2023-03-01T17:13:07;6.75;54.78
67157;SHT31;54086;50.126;8.710;2023-03-01T17:15:34;6.69;55.16
67157;SHT31;54086;50.126;8.710;2023-03-01T17:17:59;6.55;55.33
67157;SHT31;54086;50.126;8.710;2023-03-01T17:20:25;6.58;55.67
67157;SHT31;54086;50.126;8.710;2023-03-01T17:22:50;6.48;55.88
67157;SHT31;54086;50.126;8.710;2023-03-01T17:25:17;6.37;56.19
67157;SHT31;54086;50.126;8.710;2023-03-01T17:27:43;6.31;56.31
67157;SHT31;54086;50.126;8.710;2023-03-01T17:30:11;6.30;56.69
67157;SHT31;54086;50.126;8.710;2023-03-01T17:32:37;6.31;56.84
67157;SHT31;54086;50.126;8.710;2023-03-01T17:35:03;6.21;57.04
67157;SHT31;54086;50.126;8.710;2023-03-01T17:37:29;6.00;57.74
67157;SHT31;54086;50.126;8.710;2023-03-01T17:39:54;6.03;57.69
67157;SHT31;54086;50.126;8.710;2023-03-01T17:42:19;5.89;58.25
67157;SHT31;54086;50.126;8.710;2023-03-01T17:44:45;5.89;58.47
67157;SHT31;54086;50.126;8.710;2023-03-01T17:47:10;5.77;58.67